Terminal Aerodrome Forecast
Issued by NWS Denver/Boulder, CO

Home | Current Version | Previous Version | Text Only | Print | Product List | Glossary On
Versions: 1 2 3 4 5 6 7 8 9 10 11 12 13 14 15 16 17 18 19 20 21 22 23 24 25 26 27 28 29 30 31 32 33 34 35 36 37 38 39 40 41 42 43 44 45
000
FTUS45 KBOU 230527
TAFDEN
TAF
KDEN 230527Z 2306/2412 22008KT P6SM FEW100 SCT200
     FM231500 VRB05KT P6SM FEW120 BKN220
     FM231900 08007KT P6SM FEW120 SCT220
     FM240200 19008KT P6SM FEW120 SCT220
     FM240500 21012KT P6SM FEW130 BKN220=

USA.gov is the U.S. government's official web portal to all federal, state and local government web resources and services.